createdAt,value
2023-01-29T00:00:37.045Z,3.37
2023-01-29T00:03:45.683Z,3.35
2023-01-29T00:07:00.731Z,3.37
2023-01-29T00:10:09.719Z,3.36
2023-01-29T00:13:18.580Z,3.39
2023-01-29T00:16:26.720Z,3.30
2023-01-29T00:19:36.115Z,3.25
2023-01-29T00:22:44.775Z,3.13
2023-01-29T00:25:53.335Z,3.12
2023-01-29T00:29:02.731Z,3.21
2023-01-29T00:32:17.799Z,3.17
2023-01-29T00:35:19.725Z,3.12
2023-01-29T00:38:34.707Z,3.05
2023-01-29T00:41:43.425Z,2.92
2023-01-29T00:44:51.736Z,2.85
2023-01-29T00:48:00.473Z,2.82
2023-01-29T00:51:17.736Z,2.73
2023-01-29T00:54:26.503Z,2.80
2023-01-29T00:57:37.776Z,2.78
2023-01-29T01:00:46.640Z,2.82
2023-01-29T01:03:55.703Z,2.70
2023-01-29T01:10:18.354Z,2.57
2023-01-29T01:13:32.746Z,2.65
2023-01-29T01:16:34.600Z,2.44
2023-01-29T01:19:49.717Z,2.42
2023-01-29T01:23:00.758Z,2.42
2023-01-29T01:26:10.101Z,2.40
2023-01-29T01:29:18.712Z,2.41
2023-01-29T01:32:28.364Z,2.43
2023-01-29T01:35:36.753Z,2.43
2023-01-29T01:38:45.370Z,2.38
2023-01-29T01:41:53.807Z,2.35
2023-01-29T01:45:12.733Z,2.43
2023-01-29T01:48:26.668Z,2.44
2023-01-29T01:51:53.712Z,2.48
2023-01-29T01:54:55.686Z,2.44
2023-01-29T01:58:18.768Z,2.29
2023-01-29T02:01:33.721Z,2.17
2023-01-29T02:04:35.592Z,2.11
2023-01-29T02:07:53.788Z,2.13
2023-01-29T02:11:02.714Z,2.21
2023-01-29T02:14:18.744Z,2.12
2023-01-29T02:17:26.779Z,2.10
2023-01-29T02:20:44.730Z,2.17
2023-01-29T02:24:36.792Z,2.05
2023-01-29T02:28:02.792Z,1.99
2023-01-29T02:31:25.798Z,2.00
2023-01-29T02:34:58.797Z,1.91
2023-01-29T02:38:30.735Z,1.89
2023-01-29T02:41:43.793Z,1.91
2023-01-29T02:45:05.745Z,1.88
2023-01-29T02:48:15.785Z,1.81
2023-01-29T02:51:50.767Z,1.87
2023-01-29T02:55:15.783Z,1.88
2023-01-29T02:58:29.115Z,1.89
2023-01-29T03:01:51.790Z,1.89
2023-01-29T03:04:59.992Z,1.91
2023-01-29T03:08:18.796Z,1.93
2023-01-29T03:11:21.194Z,1.83
2023-01-29T03:14:44.896Z,1.85
2023-01-29T03:17:56.843Z,1.86
2023-01-29T03:21:17.766Z,1.89
2023-01-29T03:24:36.747Z,1.98
2023-01-29T03:27:53.737Z,2.06
2023-01-29T03:31:03.811Z,2.06
2023-01-29T03:34:17.302Z,2.19
2023-01-29T03:37:33.763Z,2.33
2023-01-29T03:40:59.769Z,2.35
2023-01-29T03:44:14.637Z,2.25
2023-01-29T03:47:43.882Z,2.40
2023-01-29T03:51:01.831Z,2.45
2023-01-29T03:54:29.778Z,2.33
2023-01-29T03:57:37.708Z,2.37
2023-01-29T04:01:02.827Z,2.44
2023-01-29T04:04:15.042Z,2.47
2023-01-29T04:07:31.803Z,2.34
2023-01-29T04:10:44.789Z,2.29
2023-01-29T04:13:53.939Z,2.33
2023-01-29T04:17:06.771Z,2.35
2023-01-29T04:20:16.401Z,2.27
2023-01-29T04:23:33.763Z,2.20
2023-01-29T04:27:04.817Z,2.27
2023-01-29T04:30:32.896Z,2.20
2023-01-29T04:34:10.859Z,2.29
2023-01-29T04:37:21.028Z,2.20
2023-01-29T04:40:50.057Z,2.22
2023-01-29T04:44:08.115Z,2.36
2023-01-29T04:47:37.891Z,2.46
2023-01-29T04:51:10.703Z,2.45
2023-01-29T04:54:29.779Z,2.37
2023-01-29T04:58:11.855Z,2.42
2023-01-29T05:01:24.774Z,2.34
2023-01-29T05:04:35.680Z,2.51
2023-01-29T05:07:45.813Z,2.53
2023-01-29T05:10:57.396Z,2.55
2023-01-29T05:14:09.831Z,2.50
2023-01-29T05:17:26.813Z,2.50
2023-01-29T05:20:34.065Z,2.49
2023-01-29T05:23:48.850Z,2.48
2023-01-29T05:26:53.654Z,2.52
2023-01-29T05:30:08.780Z,2.38
2023-01-29T05:33:31.813Z,2.43
2023-01-29T05:36:33.589Z,2.42
2023-01-29T05:39:48.803Z,2.46
2023-01-29T05:42:50.878Z,2.47
2023-01-29T05:46:06.842Z,2.46
2023-01-29T05:49:08.934Z,2.43
2023-01-29T05:52:30.815Z,2.50
2023-01-29T05:55:38.880Z,2.53
2023-01-29T05:58:47.584Z,2.42
2023-01-29T06:01:55.846Z,2.40
2023-01-29T06:05:10.824Z,2.40
2023-01-29T06:08:18.841Z,2.48
2023-01-29T06:11:33.851Z,2.29
2023-01-29T06:14:35.759Z,2.44
2023-01-29T06:17:50.826Z,2.37
2023-01-29T06:20:53.212Z,2.39
2023-01-29T06:24:08.820Z,2.41
2023-01-29T06:27:10.732Z,2.50
2023-01-29T06:30:26.828Z,2.48
2023-01-29T06:33:35.833Z,2.56
2023-01-29T06:36:44.436Z,2.51
2023-01-29T06:39:53.008Z,2.48
2023-01-29T06:43:01.480Z,2.34
2023-01-29T06:46:13.805Z,2.43
2023-01-29T06:49:22.572Z,2.33
2023-01-29T06:52:43.848Z,2.41
2023-01-29T06:55:51.752Z,2.24
2023-01-29T06:59:06.927Z,2.39
2023-01-29T07:02:15.903Z,2.34
2023-01-29T07:05:30.859Z,2.42
2023-01-29T07:08:39.951Z,2.34
2023-01-29T07:11:55.845Z,2.35
2023-01-29T07:14:57.867Z,2.33
2023-01-29T07:18:12.828Z,2.44
2023-01-29T07:21:21.890Z,2.36
2023-01-29T07:24:36.843Z,2.38
2023-01-29T07:27:44.901Z,2.33
2023-01-29T07:31:04.930Z,2.37
2023-01-29T07:34:13.836Z,2.35
2023-01-29T07:37:22.564Z,2.34
2023-01-29T07:40:31.878Z,2.32
2023-01-29T07:43:40.518Z,2.37
2023-01-29T07:46:49.854Z,2.42
2023-01-29T07:50:12.859Z,2.52
2023-01-29T07:53:27.830Z,2.43
2023-01-29T07:56:36.492Z,2.55
2023-01-29T07:59:44.853Z,2.30
2023-01-29T08:03:00.964Z,2.42
2023-01-29T08:06:04.407Z,2.33
2023-01-29T08:09:22.051Z,2.26
2023-01-29T08:12:30.841Z,2.39
2023-01-29T08:15:43.503Z,2.30
2023-01-29T08:18:51.883Z,2.48
2023-01-29T08:22:00.800Z,2.46
2023-01-29T08:25:08.936Z,2.49
2023-01-29T08:28:23.870Z,2.47
2023-01-29T08:31:53.726Z,2.57
2023-01-29T08:35:08.891Z,2.67
2023-01-29T08:38:10.760Z,2.63
2023-01-29T08:41:25.871Z,2.72
2023-01-29T08:44:27.809Z,2.78
2023-01-29T08:47:42.845Z,2.75
2023-01-29T08:50:51.907Z,2.50
2023-01-29T08:54:00.887Z,2.54
2023-01-29T08:57:08.860Z,2.49
2023-01-29T09:00:19.155Z,2.30
2023-01-29T09:03:27.928Z,2.34
2023-01-29T09:06:42.925Z,2.23
2023-01-29T09:09:44.800Z,2.48
2023-01-29T09:12:59.885Z,2.62
2023-01-29T09:16:03.175Z,2.51
2023-01-29T09:19:17.997Z,2.61
2023-01-29T09:22:26.888Z,2.57
2023-01-29T09:25:42.891Z,2.55
2023-01-29T09:28:50.923Z,2.37
2023-01-29T09:32:05.879Z,2.22
2023-01-29T09:35:16.180Z,2.49
2023-01-29T09:38:24.592Z,2.60
2023-01-29T09:41:58.899Z,2.79
2023-01-29T09:45:20.908Z,2.84
2023-01-29T09:48:33.458Z,2.56
2023-01-29T09:51:53.917Z,2.58
2023-01-29T09:55:20.411Z,2.71
2023-01-29T09:58:38.901Z,2.61
2023-01-29T10:02:08.003Z,2.26
2023-01-29T10:05:33.131Z,2.29
2023-01-29T10:09:08.947Z,2.34
2023-01-29T10:12:40.756Z,2.34
2023-01-29T10:16:14.904Z,2.50
2023-01-29T10:19:55.915Z,2.48
2023-01-29T10:23:27.932Z,2.74
2023-01-29T10:26:42.999Z,2.66
2023-01-29T10:29:46.905Z,2.78
2023-01-29T10:33:05.906Z,2.39
2023-01-29T10:36:21.201Z,2.34
2023-01-29T10:39:32.976Z,2.46
2023-01-29T10:42:50.009Z,2.57
2023-01-29T10:46:17.924Z,2.62
2023-01-29T10:49:55.895Z,2.20
2023-01-29T10:53:33.917Z,2.33
2023-01-29T10:56:59.924Z,2.57
2023-01-29T11:00:13.734Z,2.33
2023-01-29T11:03:29.433Z,2.62
2023-01-29T11:06:43.908Z,2.44
2023-01-29T11:10:09.026Z,2.64
2023-01-29T11:13:18.514Z,2.72
2023-01-29T11:16:26.943Z,2.24
2023-01-29T11:19:47.937Z,2.44
2023-01-29T11:22:54.144Z,2.64
2023-01-29T11:26:09.938Z,2.73
2023-01-29T11:29:32.119Z,2.78
2023-01-29T11:32:47.909Z,2.83
2023-01-29T11:35:56.923Z,2.55
2023-01-29T11:39:23.952Z,2.54
2023-01-29T11:42:31.480Z,2.49
2023-01-29T11:45:46.955Z,2.42
2023-01-29T11:49:05.852Z,2.52
2023-01-29T11:52:40.424Z,2.50
2023-01-29T11:55:53.936Z,2.45
2023-01-29T11:59:03.039Z,2.40
2023-01-29T12:02:31.942Z,2.37
2023-01-29T12:05:48.917Z,2.52
2023-01-29T12:09:01.704Z,2.59
2023-01-29T12:12:34.040Z,2.75
2023-01-29T12:15:49.984Z,2.77
2023-01-29T12:19:04.901Z,2.20
2023-01-29T12:22:26.648Z,2.57
2023-01-29T12:25:50.945Z,2.72
2023-01-29T12:29:31.942Z,2.83
2023-01-29T12:32:49.616Z,3.05
2023-01-29T12:36:33.988Z,3.31
2023-01-29T12:39:42.864Z,3.43
2023-01-29T12:43:05.041Z,4.42
2023-01-29T12:46:28.003Z,3.47
2023-01-29T12:49:39.659Z,3.85
2023-01-29T12:53:01.989Z,3.89
2023-01-29T12:56:29.121Z,3.82
2023-01-29T12:59:45.965Z,3.53
2023-01-29T13:03:00.755Z,3.30
2023-01-29T13:06:21.967Z,3.54
2023-01-29T13:09:34.667Z,3.61
2023-01-29T13:12:45.971Z,3.86
2023-01-29T13:16:03.003Z,3.58
2023-01-29T13:19:24.436Z,3.43
2023-01-29T13:22:44.948Z,3.04
2023-01-29T13:25:50.690Z,3.10
2023-01-29T13:29:04.988Z,2.85
2023-01-29T13:32:09.377Z,2.75
2023-01-29T13:35:27.000Z,2.67
2023-01-29T13:38:39.008Z,2.52
2023-01-29T13:41:49.969Z,2.61
2023-01-29T13:45:03.058Z,2.59
2023-01-29T13:48:31.004Z,2.49
2023-01-29T13:51:39.522Z,2.42
2023-01-29T13:54:59.953Z,2.15
2023-01-29T13:58:17.080Z,2.11
2023-01-29T14:01:52.004Z,2.12
2023-01-29T14:05:13.999Z,1.95
2023-01-29T14:08:45.955Z,1.81
2023-01-29T14:11:48.537Z,1.81
2023-01-29T14:15:21.761Z,1.87
2023-01-29T14:18:33.415Z,1.81
2023-01-29T14:21:43.988Z,1.81
2023-01-29T14:25:05.040Z,1.75
2023-01-29T14:28:29.978Z,1.81
2023-01-29T14:31:51.041Z,1.68
2023-01-29T14:35:04.994Z,1.73
2023-01-29T14:38:21.995Z,1.77
2023-01-29T14:41:31.772Z,1.71
2023-01-29T14:45:06.006Z,1.64
2023-01-29T14:48:37.413Z,1.61
2023-01-29T14:51:52.048Z,1.37
2023-01-29T14:55:22.008Z,1.40
2023-01-29T14:58:40.045Z,1.33
2023-01-29T15:02:02.075Z,1.49
2023-01-29T15:05:18.023Z,1.53
2023-01-29T15:08:41.980Z,1.54
2023-01-29T15:12:05.983Z,1.55
2023-01-29T15:15:28.123Z,1.37
2023-01-29T15:18:44.070Z,1.44
2023-01-29T15:22:18.962Z,1.45
2023-01-29T15:25:34.647Z,1.47
2023-01-29T15:28:47.230Z,1.40
2023-01-29T15:32:07.992Z,1.22
2023-01-29T15:35:35.016Z,1.28
2023-01-29T15:38:37.120Z,1.26
2023-01-29T15:41:53.012Z,1.28
2023-01-29T15:44:55.492Z,1.09
2023-01-29T15:48:19.036Z,1.05
2023-01-29T15:51:25.036Z,1.04
2023-01-29T15:54:46.991Z,1.08
2023-01-29T15:58:02.070Z,1.15
2023-01-29T16:01:04.211Z,1.15
2023-01-29T16:04:27.020Z,1.11
2023-01-29T16:07:30.143Z,1.03
2023-01-29T16:10:48.021Z,1.02
2023-01-29T16:13:57.550Z,0.90
2023-01-29T16:17:29.047Z,0.88
2023-01-29T16:20:52.086Z,0.94
2023-01-29T16:24:06.270Z,0.89
2023-01-29T16:27:20.056Z,0.70
2023-01-29T16:30:29.201Z,0.68
2023-01-29T16:33:43.049Z,0.81
2023-01-29T16:37:00.032Z,0.98
2023-01-29T16:40:22.056Z,0.96
2023-01-29T16:43:54.046Z,1.00
2023-01-29T16:47:11.775Z,0.89
2023-01-29T16:50:54.204Z,0.68
2023-01-29T16:54:21.108Z,0.76
2023-01-29T16:57:33.307Z,0.81
2023-01-29T17:00:54.103Z,0.80
2023-01-29T17:04:04.499Z,0.86
2023-01-29T17:07:24.041Z,0.80
2023-01-29T17:10:41.055Z,0.79
2023-01-29T17:13:52.064Z,0.65
2023-01-29T17:17:11.049Z,0.62
2023-01-29T17:20:16.195Z,0.23
2023-01-29T17:23:32.041Z,0.43
2023-01-29T17:26:44.267Z,0.48
2023-01-29T17:30:01.016Z,0.42
2023-01-29T17:33:15.725Z,0.38
2023-01-29T17:36:30.096Z,0.42
2023-01-29T17:39:39.062Z,0.31
2023-01-29T17:42:47.960Z,0.38
2023-01-29T17:45:56.091Z,0.39
2023-01-29T17:49:19.261Z,0.21
2023-01-29T17:52:28.076Z,0.21
2023-01-29T17:55:43.093Z,0.09
2023-01-29T17:58:45.275Z,0.03
2023-01-29T18:02:01.137Z,0.12
2023-01-29T18:05:03.256Z,0.07
2023-01-29T18:08:32.040Z,0.05
2023-01-29T18:11:49.066Z,-0.02
2023-01-29T18:14:57.944Z,0.09
2023-01-29T18:18:07.101Z,-0.06
2023-01-29T18:21:16.140Z,-0.04
2023-01-29T18:24:25.049Z,-0.09
2023-01-29T18:27:34.776Z,-0.07
2023-01-29T18:30:43.130Z,-0.31
2023-01-29T18:33:59.080Z,-0.22
2023-01-29T18:37:01.146Z,-0.23
2023-01-29T18:40:18.090Z,-0.16
2023-01-29T18:43:20.154Z,-0.18
2023-01-29T18:46:35.101Z,-0.45
2023-01-29T18:49:37.156Z,-0.36
2023-01-29T18:52:52.063Z,-0.41
2023-01-29T18:56:02.400Z,-0.29
2023-01-29T18:59:18.097Z,-0.25
2023-01-29T19:02:27.185Z,-0.19
2023-01-29T19:05:36.056Z,-0.32
2023-01-29T19:08:51.049Z,-0.28
2023-01-29T19:12:00.122Z,-0.24
2023-01-29T19:15:10.672Z,-0.27
2023-01-29T19:18:26.079Z,-0.35
2023-01-29T19:21:35.220Z,-0.27
2023-01-29T19:24:44.072Z,-0.50
2023-01-29T19:27:53.087Z,-0.49
2023-01-29T19:31:09.143Z,-0.50
2023-01-29T19:34:18.124Z,-0.39
2023-01-29T19:37:28.044Z,-0.48
2023-01-29T19:40:43.109Z,-0.35
2023-01-29T19:43:45.153Z,-0.40
2023-01-29T19:47:01.092Z,-0.39
2023-01-29T19:50:11.120Z,-0.50
2023-01-29T19:53:28.730Z,-0.36
2023-01-29T19:56:38.106Z,-0.43
2023-01-29T19:59:46.817Z,-0.45
2023-01-29T20:02:55.126Z,-0.36
2023-01-29T20:06:06.017Z,-0.38
2023-01-29T20:09:21.148Z,-0.29
2023-01-29T20:12:30.095Z,-0.35
2023-01-29T20:15:42.868Z,-0.28
2023-01-29T20:19:14.377Z,-0.39
2023-01-29T20:22:17.173Z,-0.53
2023-01-29T20:25:32.125Z,-0.56
2023-01-29T20:28:48.124Z,-0.60
2023-01-29T20:31:57.325Z,-0.46
2023-01-29T20:35:13.111Z,-0.36
2023-01-29T20:38:22.089Z,-0.37
2023-01-29T20:41:31.125Z,-0.46
2023-01-29T20:44:46.134Z,-0.50
2023-01-29T20:47:49.490Z,-0.54
2023-01-29T20:51:11.113Z,-0.63
2023-01-29T20:54:33.330Z,-0.46
2023-01-29T20:57:37.773Z,-0.42
2023-01-29T21:00:52.147Z,-0.57
2023-01-29T21:04:00.715Z,-0.62
2023-01-29T21:07:09.184Z,-0.49
2023-01-29T21:10:18.350Z,-0.49
2023-01-29T21:13:27.112Z,-0.54
2023-01-29T21:16:36.034Z,-0.44
2023-01-29T21:19:45.136Z,-0.45
2023-01-29T21:23:00.115Z,-0.46
2023-01-29T21:26:04.873Z,-0.43
2023-01-29T21:29:20.112Z,-0.48
2023-01-29T21:32:28.092Z,-0.50
2023-01-29T21:35:36.815Z,-0.46
2023-01-29T21:38:46.171Z,-0.57
2023-01-29T21:41:55.021Z,-0.55
2023-01-29T21:45:03.151Z,-0.68
2023-01-29T21:48:11.849Z,-0.64
2023-01-29T21:51:26.121Z,-0.73
2023-01-29T21:54:34.461Z,-0.71
2023-01-29T21:57:50.137Z,-0.63
2023-01-29T22:00:52.062Z,-0.72
2023-01-29T22:04:07.137Z,-0.68
2023-01-29T22:07:16.175Z,-0.62
2023-01-29T22:10:24.764Z,-0.73
2023-01-29T22:13:33.120Z,-0.71
2023-01-29T22:16:41.799Z,-0.77
2023-01-29T22:19:50.139Z,-0.76
2023-01-29T22:22:58.790Z,-0.74
2023-01-29T22:26:12.207Z,-0.81
2023-01-29T22:29:27.180Z,-0.76
2023-01-29T22:32:29.109Z,-0.78
2023-01-29T22:35:45.179Z,-0.72
2023-01-29T22:38:47.043Z,-0.66
2023-01-29T22:42:02.165Z,-0.61
2023-01-29T22:45:11.159Z,-0.68
2023-01-29T22:48:19.787Z,-0.71
2023-01-29T22:51:29.164Z,-0.69
2023-01-29T22:54:44.720Z,-0.67
2023-01-29T22:57:55.140Z,-0.73
2023-01-29T23:01:04.421Z,-0.67
2023-01-29T23:04:13.165Z,-0.64
2023-01-29T23:07:28.152Z,-0.55
2023-01-29T23:10:30.017Z,-0.63
2023-01-29T23:13:45.203Z,-0.40
2023-01-29T23:16:47.051Z,-0.39
2023-01-29T23:20:02.195Z,-0.43
2023-01-29T23:23:17.177Z,-0.41
2023-01-29T23:26:19.164Z,-0.53
2023-01-29T23:29:34.141Z,-0.69
2023-01-29T23:32:36.902Z,-0.72
2023-01-29T23:35:51.197Z,-0.70
2023-01-29T23:38:53.012Z,-0.90
2023-01-29T23:42:09.163Z,-0.92
2023-01-29T23:45:18.176Z,-0.75
2023-01-29T23:48:26.852Z,-0.72
2023-01-29T23:51:35.229Z,-0.69
2023-01-29T23:54:50.457Z,-0.73
2023-01-29T23:57:59.158Z,-0.80
